Time;durP1;ratioP1;P1;durP2;ratioP2;P2;SDS_P1;SDS_P2;PMS_P1;PMS_P2;Temp;Humidity;BMP_temperature;BMP_pressure;BME280_temperature;BME280_humidity;BME280_pressure;Samples;Min_cycle;Max_cycle;Signal;HPM_P1;HPM_P2
2021/06/24 00:00:04;;;;;;;1.80;1.27;;;20.10;99.90;20.00;99600.00;;;;339687;28;94071;-94
2021/06/24 00:00:17;;;;;;;3.05;1.40;;;20.10;99.90;20.00;99596.00;;;;339094;28;82477;-93
2021/06/24 00:00:29;;;;;;;3.38;1.48;;;20.10;99.90;20.00;99600.00;;;;334363;29;96661;-93
2021/06/24 00:00:55;;;;;;;3.63;1.58;;;20.10;99.90;20.00;99600.00;;;;337767;28;83376;-95
2021/06/24 00:01:07;;;;;;;1.95;1.10;;;20.10;99.90;20.00;99602.00;;;;338342;28;96127;-94
2021/06/24 00:01:19;;;;;;;1.88;1.20;;;20.10;99.90;20.00;99598.00;;;;336124;28;83418;-94
2021/06/24 00:01:34;;;;;;;2.00;1.20;;;20.10;99.90;20.10;99599.00;;;;334512;29;94626;-94
2021/06/24 00:01:45;;;;;;;2.17;1.17;;;20.10;99.90;20.20;99603.00;;;;337826;28;83240;-94
2021/06/24 00:01:57;;;;;;;2.22;1.30;;;20.10;99.90;20.10;99594.00;;;;338097;28;96042;-93
2021/06/24 00:02:09;;;;;;;3.85;1.35;;;20.10;99.90;20.10;99598.00;;;;340081;28;84206;-95
2021/06/24 00:02:21;;;;;;;3.80;1.40;;;20.10;99.90;20.10;99593.00;;;;339708;28;93734;-94
2021/06/24 00:02:33;;;;;;;2.50;1.38;;;20.20;99.90;20.10;99591.00;;;;340947;28;83397;-96
2021/06/24 00:02:45;;;;;;;3.42;1.35;;;20.10;99.90;20.20;99600.00;;;;338308;28;97749;-94
2021/06/24 00:02:57;;;;;;;3.45;1.27;;;20.10;99.90;20.20;99595.00;;;;340314;28;84117;-94
2021/06/24 00:03:09;;;;;;;3.00;1.27;;;20.20;99.90;20.20;99592.00;;;;335720;28;93039;-94
2021/06/24 00:03:27;;;;;;;2.05;1.40;;;20.20;99.90;20.20;99591.00;;;;338787;28;84622;-95
2021/06/24 00:03:39;;;;;;;1.80;1.30;;;20.20;99.90;20.30;99595.00;;;;339735;28;96111;-95
2021/06/24 00:03:51;;;;;;;1.63;1.15;;;20.20;99.90;20.30;99597.00;;;;337594;28;83586;-93
2021/06/24 00:04:03;;;;;;;1.60;1.00;;;20.20;99.90;20.30;99603.00;;;;339793;28;94470;-95
2021/06/24 00:04:15;;;;;;;2.10;1.02;;;20.20;99.90;20.30;99599.00;;;;340360;28;83893;-95
2021/06/24 00:04:28;;;;;;;2.80;1.08;;;20.20;99.90;20.30;99594.00;;;;338314;28;97140;-93
2021/06/24 00:04:40;;;;;;;3.00;1.40;;;20.20;99.90;20.30;99601.00;;;;340336;28;83963;-92
2021/06/24 00:04:52;;;;;;;2.65;1.40;;;20.20;99.90;20.30;99599.00;;;;338182;28;94599;-95
2021/06/24 00:05:06;;;;;;;3.60;1.65;;;20.20;99.90;20.20;99593.00;;;;341726;28;84182;-95
2021/06/24 00:05:17;;;;;;;3.60;1.60;;;20.20;99.90;20.20;99603.00;;;;339017;28;93619;-95
2021/06/24 00:05:30;;;;;;;2.15;1.23;;;20.20;99.90;20.20;99592.00;;;;341533;28;82441;-94
2021/06/24 00:05:42;;;;;;;1.95;1.23;;;20.30;99.90;20.10;99600.00;;;;341200;28;93788;-96
2021/06/24 00:05:54;;;;;;;3.47;1.45;;;20.30;99.90;20.00;99600.00;;;;339110;28;82458;-95
2021/06/24 00:06:07;;;;;;;3.38;1.20;;;20.20;99.90;20.10;99599.00;;;;340464;28;94724;-95
2021/06/24 00:06:19;;;;;;;2.97;1.17;;;20.20;99.90;20.10;99591.00;;;;340310;28;82560;-95
2021/06/24 00:06:31;;;;;;;2.10;1.23;;;20.20;99.90;20.10;99601.00;;;;339797;28;93414;-95
2021/06/24 00:06:42;;;;;;;2.33;1.40;;;20.20;99.90;20.10;99600.00;;;;340518;28;83243;-92
2021/06/24 00:06:54;;;;;;;2.45;1.30;;;20.20;99.90;20.10;99604.00;;;;335740;28;94758;-95
2021/06/24 00:07:06;;;;;;;2.30;1.13;;;20.20;99.90;20.10;99595.00;;;;339190;28;83331;-95
2021/06/24 00:07:18;;;;;;;2.72;1.52;;;20.20;99.90;20.10;99605.00;;;;335593;28;95891;-94
2021/06/24 00:07:30;;;;;;;3.00;1.42;;;20.20;99.90;20.20;99600.00;;;;340439;28;84882;-94
2021/06/24 00:07:42;;;;;;;3.40;1.38;;;20.20;99.90;20.10;99598.00;;;;339738;28;94940;-95
2021/06/24 00:07:53;;;;;;;2.80;1.25;;;20.20;99.90;20.00;99594.00;;;;341610;28;83729;-91
2021/06/24 00:08:07;;;;;;;2.38;1.20;;;20.20;99.90;20.10;99597.00;;;;337436;28;97174;-94
2021/06/24 00:08:19;;;;;;;2.00;1.25;;;20.20;99.90;20.10;99604.00;;;;340054;28;83431;-94
2021/06/24 00:08:31;;;;;;;2.53;1.55;;;20.20;99.90;20.00;99604.00;;;;339662;28;94773;-94
2021/06/24 00:08:43;;;;;;;2.78;1.67;;;20.20;99.90;20.10;99605.00;;;;340203;28;83449;-95
2021/06/24 00:08:55;;;;;;;3.45;1.77;;;20.20;99.90;20.10;99603.00;;;;338091;28;96665;-95
2021/06/24 00:09:07;;;;;;;3.53;1.55;;;20.20;99.90;20.20;99595.00;;;;339046;28;82577;-95
2021/06/24 00:09:19;;;;;;;2.55;1.40;;;20.20;99.90;20.20;99596.00;;;;338256;28;96452;-95
2021/06/24 00:09:31;;;;;;;3.90;1.38;;;20.20;99.90;20.20;99595.00;;;;341778;28;83281;-94
2021/06/24 00:09:43;;;;;;;3.78;1.40;;;20.20;99.90;20.10;99599.00;;;;339914;28;92479;-94
2021/06/24 00:09:54;;;;;;;4.40;1.60;;;20.20;99.90;20.10;99601.00;;;;341655;28;84285;-94
2021/06/24 00:10:07;;;;;;;2.78;1.48;;;20.20;99.90;20.10;99607.00;;;;336979;28;97633;-95
2021/06/24 00:10:19;;;;;;;2.70;1.42;;;20.20;99.90;20.10;99602.00;;;;340357;28;84225;-95
2021/06/24 00:10:30;;;;;;;2.80;1.40;;;20.20;99.90;20.10;99594.00;;;;338369;28;96561;-94
2021/06/24 00:10:42;;;;;;;2.40;1.35;;;20.20;99.90;20.10;99595.00;;;;339108;28;82461;-94
2021/06/24 00:10:55;;;;;;;2.45;1.55;;;20.20;99.90;20.10;99601.00;;;;339632;28;97374;-95
2021/06/24 00:11:09;;;;;;;2.55;1.70;;;20.20;99.90;20.10;99592.00;;;;338558;28;85387;-95
2021/06/24 00:11:21;;;;;;;2.20;1.60;;;20.20;99.90;20.10;99590.00;;;;339552;28;94499;-94
2021/06/24 00:11:33;;;;;;;1.80;1.55;;;20.20;99.90;20.00;99595.00;;;;340007;28;85221;-94
2021/06/24 00:11:45;;;;;;;2.20;1.40;;;20.20;99.90;20.00;99599.00;;;;338537;28;94027;-95
2021/06/24 00:11:56;;;;;;;2.38;1.50;;;20.20;99.90;20.10;99592.00;;;;339034;28;82515;-94
2021/06/24 00:12:09;;;;;;;2.85;1.50;;;20.20;99.90;20.10;99596.00;;;;339465;28;94015;-94
2021/06/24 00:12:22;;;;;;;3.20;1.45;;;20.20;99.90;20.10;99601.00;;;;338930;28;83321;-96
2021/06/24 00:12:34;;;;;;;3.08;1.50;;;20.20;99.90;20.00;99603.00;;;;342324;28;97418;-94
2021/06/24 00:12:46;;;;;;;2.65;1.38;;;20.20;99.90;20.10;99592.00;;;;340395;28;82726;-95
2021/06/24 00:12:58;;;;;;;2.67;1.40;;;20.10;99.90;20.10;99598.00;;;;341135;28;95122;-94
2021/06/24 00:13:10;;;;;;;2.75;1.40;;;20.10;99.90;20.00;99595.00;;;;339074;28;83251;-94
2021/06/24 00:13:22;;;;;;;2.60;1.58;;;20.10;99.90;20.00;99596.00;;;;340940;28;96481;-95
2021/06/24 00:13:34;;;;;;;2.75;1.45;;;20.10;99.90;20.00;99598.00;;;;341668;28;83583;-95
2021/06/24 00:13:46;;;;;;;2.20;1.23;;;20.10;99.90;20.00;99594.00;;;;341169;28;93937;-95
2021/06/24 00:13:58;;;;;;;2.05;1.30;;;20.10;99.90;19.90;99598.00;;;;338759;28;83493;-93
2021/06/24 00:14:10;;;;;;;3.70;1.65;;;20.10;99.90;20.00;99592.00;;;;337658;28;95220;-94
2021/06/24 00:14:21;;;;;;;4.10;1.48;;;20.10;99.90;20.10;99595.00;;;;340250;28;83934;-94
2021/06/24 00:14:33;;;;;;;5.32;1.35;;;20.10;99.90;20.10;99593.00;;;;340343;28;94202;-95
2021/06/24 00:14:45;;;;;;;5.50;1.60;;;20.10;99.90;20.10;99590.00;;;;337379;28;85065;-92
2021/06/24 00:14:57;;;;;;;3.40;1.80;;;20.10;99.90;20.10;99593.00;;;;337043;28;94748;-93
2021/06/24 00:15:10;;;;;;;3.35;1.70;;;20.10;99.90;20.00;99585.00;;;;336362;28;82461;-95
2021/06/24 00:15:22;;;;;;;2.95;1.30;;;20.10;99.90;20.00;99590.00;;;;338414;28;92855;-95
2021/06/24 00:15:34;;;;;;;3.70;1.10;;;20.10;99.90;20.00;99592.00;;;;339175;28;82457;-95
2021/06/24 00:15:46;;;;;;;3.55;1.10;;;20.10;99.90;20.10;99593.00;;;;337101;28;96475;-95
2021/06/24 00:15:59;;;;;;;3.25;1.23;;;20.10;99.90;20.10;99586.00;;;;340478;28;83797;-95
2021/06/24 00:16:10;;;;;;;3.08;1.35;;;20.10;99.90;20.10;99587.00;;;;337020;28;96167;-95
2021/06/24 00:16:22;;;;;;;3.58;1.35;;;20.10;99.90;20.10;99593.00;;;;340670;28;83291;-94
2021/06/24 00:16:34;;;;;;;2.97;1.30;;;20.10;99.90;20.10;99595.00;;;;339791;28;94527;-95
2021/06/24 00:16:46;;;;;;;3.28;1.40;;;20.20;99.90;20.10;99594.00;;;;339140;28;83880;-95
2021/06/24 00:16:58;;;;;;;3.00;1.45;;;20.20;99.90;20.10;99596.00;;;;336948;28;93791;-94
2021/06/24 00:17:10;;;;;;;3.20;1.40;;;20.20;99.90;20.20;99591.00;;;;340471;28;82663;-92
2021/06/24 00:17:22;;;;;;;2.60;1.38;;;20.10;99.90;20.20;99583.00;;;;339641;28;96802;-95
2021/06/24 00:17:33;;;;;;;1.98;1.08;;;20.20;99.90;20.20;99588.00;;;;339949;28;83438;-95
2021/06/24 00:17:45;;;;;;;1.60;1.02;;;20.20;99.90;20.20;99595.00;;;;337333;28;93963;-95
2021/06/24 00:17:57;;;;;;;2.28;1.20;;;20.20;99.90;20.10;99591.00;;;;339127;28;85134;-94
2021/06/24 00:18:09;;;;;;;2.45;1.17;;;20.20;99.90;20.10;99596.00;;;;339694;28;94115;-94
2021/06/24 00:18:21;;;;;;;2.38;1.02;;;20.20;99.90;20.10;99595.00;;;;339079;28;82449;-95
2021/06/24 00:18:33;;;;;;;1.65;1.00;;;20.20;99.90;20.10;99591.00;;;;338208;28;97894;-94
2021/06/24 00:18:45;;;;;;;1.65;1.00;;;20.20;99.90;20.20;99587.00;;;;339285;28;82377;-95
2021/06/24 00:18:57;;;;;;;1.75;1.02;;;20.20;99.90;20.20;99589.00;;;;338587;28;93110;-94
2021/06/24 00:19:09;;;;;;;2.10;1.30;;;20.20;99.90;20.30;99591.00;;;;340677;28;82573;-96
2021/06/24 00:19:21;;;;;;;2.45;1.58;;;20.20;99.90;20.20;99585.00;;;;341355;28;93287;-95
2021/06/24 00:19:33;;;;;;;2.50;1.48;;;20.20;99.90;20.20;99593.00;;;;337810;28;83567;-95
2021/06/24 00:19:45;;;;;;;3.53;1.42;;;20.20;99.90;20.20;99592.00;;;;338583;28;95296;-95
2021/06/24 00:19:57;;;;;;;3.50;1.55;;;20.20;99.90;20.20;99591.00;;;;340640;28;83546;-93
2021/06/24 00:20:09;;;;;;;2.70;1.55;;;20.20;99.90;20.20;99591.00;;;;340046;28;94158;-95
2021/06/24 00:20:21;;;;;;;2.13;1.67;;;20.20;99.90;20.20;99597.00;;;;340513;28;83466;-96
2021/06/24 00:20:34;;;;;;;2.15;1.67;;;20.20;99.90;20.10;99593.00;;;;338932;28;96932;-93
2021/06/24 00:20:46;;;;;;;2.13;1.45;;;20.20;99.90;20.10;99588.00;;;;336585;28;82932;-94
2021/06/24 00:20:58;;;;;;;1.67;1.10;;;20.20;99.90;20.10;99586.00;;;;337088;28;96675;-94
2021/06/24 00:21:09;;;;;;;1.55;1.13;;;20.20;99.90;20.10;99593.00;;;;339123;28;84495;-94
2021/06/24 00:21:22;;;;;;;2.17;1.42;;;20.20;99.90;20.00;99594.00;;;;338524;28;95745;-95
2021/06/24 00:21:34;;;;;;;2.50;1.50;;;20.20;99.90;20.10;99592.00;;;;339285;28;82472;-95
2021/06/24 00:21:45;;;;;;;2.10;1.10;;;20.20;99.90;20.00;99597.00;;;;338721;28;95107;-92
2021/06/24 00:21:57;;;;;;;2.15;0.80;;;20.20;99.90;19.90;99592.00;;;;339137;28;83518;-95
2021/06/24 00:22:09;;;;;;;2.38;0.88;;;20.20;99.90;20.00;99596.00;;;;339970;28;95025;-95
2021/06/24 00:22:21;;;;;;;2.38;1.00;;;20.10;99.90;20.10;99599.00;;;;338071;28;82692;-95
2021/06/24 00:22:33;;;;;;;2.80;1.00;;;20.20;99.90;20.10;99595.00;;;;341235;28;93511;-95
2021/06/24 00:22:44;;;;;;;4.20;1.10;;;20.20;99.90;20.00;99592.00;;;;336582;28;82508;-95
2021/06/24 00:22:56;;;;;;;4.10;1.20;;;20.20;99.90;20.10;99592.00;;;;337339;28;94518;-94
2021/06/24 00:23:08;;;;;;;2.30;1.17;;;20.10;99.90;20.20;99597.00;;;;341911;28;83234;-93
2021/06/24 00:23:20;;;;;;;2.47;1.05;;;20.20;99.90;20.20;99590.00;;;;338610;28;96121;-94
2021/06/24 00:23:33;;;;;;;1.95;1.00;;;20.20;99.90;20.10;99591.00;;;;340485;28;84399;-95
2021/06/24 00:23:45;;;;;;;1.27;0.80;;;20.20;99.90;20.10;99590.00;;;;340036;28;97020;-95
2021/06/24 00:23:57;;;;;;;2.00;0.95;;;20.20;99.90;20.00;99595.00;;;;339535;28;82494;-92
2021/06/24 00:24:08;;;;;;;2.38;1.10;;;20.20;99.90;20.00;99593.00;;;;340333;28;95290;-94
2021/06/24 00:24:20;;;;;;;3.28;1.25;;;20.20;99.90;19.90;99591.00;;;;340990;28;82411;-95
2021/06/24 00:24:32;;;;;;;2.72;1.40;;;20.20;99.90;19.90;99588.00;;;;340241;28;93363;-95
2021/06/24 00:24:44;;;;;;;1.90;1.23;;;20.20;99.90;20.00;99592.00;;;;341018;28;82376;-95
2021/06/24 00:24:56;;;;;;;1.60;1.15;;;20.10;99.90;20.10;99595.00;;;;336478;28;93559;-95
2021/06/24 00:25:08;;;;;;;1.83;0.80;;;20.20;99.90;20.20;99594.00;;;;339742;28;82460;-95
2021/06/24 00:25:20;;;;;;;1.50;0.60;;;20.20;99.70;20.30;99587.00;;;;340149;28;96358;-95
2021/06/24 00:25:32;;;;;;;1.35;0.80;;;20.20;99.60;20.30;99591.00;;;;342276;28;83595;-95
2021/06/24 00:25:44;;;;;;;1.40;0.88;;;20.20;99.60;20.20;99591.00;;;;341488;28;96566;-95
2021/06/24 00:25:56;;;;;;;1.85;0.88;;;20.20;99.50;20.20;99590.00;;;;342444;28;82413;-94
2021/06/24 00:26:08;;;;;;;2.63;1.10;;;20.20;99.60;20.10;99583.00;;;;342181;28;96243;-92
2021/06/24 00:26:20;;;;;;;2.60;1.13;;;20.20;99.60;20.10;99587.00;;;;340541;28;84669;-95
2021/06/24 00:26:32;;;;;;;2.42;1.23;;;20.20;99.60;20.00;99592.00;;;;337403;28;97754;-96
2021/06/24 00:26:44;;;;;;;1.80;1.02;;;20.20;99.60;20.00;99593.00;;;;338373;28;83252;-94
2021/06/24 00:26:56;;;;;;;1.73;0.98;;;20.20;99.70;20.10;99591.00;;;;337581;28;95078;-95
2021/06/24 00:27:08;;;;;;;1.70;0.90;;;20.20;99.70;20.20;99588.00;;;;336903;28;83925;-93
2021/06/24 00:27:19;;;;;;;1.95;0.80;;;20.20;99.50;20.30;99591.00;;;;340326;28;93414;-94
2021/06/24 00:27:31;;;;;;;2.08;0.80;;;20.20;99.40;20.30;99579.00;;;;339626;28;83369;-94
2021/06/24 00:27:43;;;;;;;1.88;0.70;;;20.20;99.30;20.30;99592.00;;;;338922;28;94909;-94
2021/06/24 00:27:55;;;;;;;1.83;0.70;;;20.20;99.20;20.20;99580.00;;;;339474;28;84334;-96
2021/06/24 00:28:07;;;;;;;1.38;0.52;;;20.20;99.20;20.20;99581.00;;;;341608;28;96804;-94
2021/06/24 00:28:19;;;;;;;2.00;0.70;;;20.20;99.20;20.10;99591.00;;;;342261;28;83335;-95
2021/06/24 00:28:31;;;;;;;2.10;0.70;;;20.20;99.30;20.00;99594.00;;;;342846;28;95924;-95
2021/06/24 00:28:43;;;;;;;1.48;0.60;;;20.20;99.30;20.10;99588.00;;;;342252;28;82775;-93
2021/06/24 00:28:54;;;;;;;1.85;0.75;;;20.20;99.30;20.20;99595.00;;;;341705;28;94582;-95
2021/06/24 00:29:06;;;;;;;2.17;0.98;;;20.20;99.10;20.20;99591.00;;;;340485;28;82637;-95
2021/06/24 00:29:18;;;;;;;2.13;1.00;;;20.20;99.10;20.10;99591.00;;;;340089;28;95493;-95
2021/06/24 00:29:30;;;;;;;2.10;0.90;;;20.20;99.20;20.20;99587.00;;;;338247;28;82411;-95
2021/06/24 00:29:42;;;;;;;2.08;0.73;;;20.20;99.20;20.00;99585.00;;;;336460;28;92338;-95
2021/06/24 00:29:54;;;;;;;2.30;0.63;;;20.20;99.20;20.00;99596.00;;;;339495;28;82307;-95
2021/06/24 00:30:07;;;;;;;2.17;0.60;;;20.20;99.30;19.80;99592.00;;;;338257;28;97700;-96
2021/06/24 00:30:19;;;;;;;2.40;0.68;;;20.10;99.30;19.70;99589.00;;;;342347;28;82460;-95
2021/06/24 00:30:34;;;;;;;3.17;0.90;;;20.10;99.30;19.60;99589.00;;;;336179;28;92692;-95
2021/06/24 00:30:47;;;;;;;3.40;1.05;;;20.10;99.30;19.50;99600.00;;;;339431;28;82416;-95
2021/06/24 00:30:59;;;;;;;2.92;0.90;;;20.00;99.00;19.60;99587.00;;;;341411;28;93775;-95
2021/06/24 00:31:11;;;;;;;1.65;0.75;;;20.00;99.20;19.60;99589.00;;;;340742;28;82531;-94
2021/06/24 00:31:23;;;;;;;1.75;0.85;;;20.00;99.30;19.50;99593.00;;;;339856;28;95304;-94
2021/06/24 00:31:36;;;;;;;1.95;0.70;;;20.00;99.50;19.50;99591.00;;;;339088;28;82589;-94
2021/06/24 00:31:48;;;;;;;2.13;0.75;;;20.00;99.60;19.50;99593.00;;;;341093;28;94347;-94
2021/06/24 00:32:00;;;;;;;2.38;0.80;;;19.90;99.60;19.40;99591.00;;;;337799;28;82528;-95
2021/06/24 00:32:12;;;;;;;2.53;0.82;;;19.90;99.40;19.30;99589.00;;;;339288;28;94925;-95
2021/06/24 00:32:24;;;;;;;2.53;0.85;;;19.90;99.30;19.30;99590.00;;;;339036;28;83472;-95
2021/06/24 00:32:36;;;;;;;2.60;0.80;;;19.80;99.10;19.30;99596.00;;;;340524;28;94611;-90
2021/06/24 00:32:49;;;;;;;2.20;0.70;;;19.80;99.20;19.30;99587.00;;;;338922;28;82799;-95
2021/06/24 00:33:01;;;;;;;2.08;0.68;;;19.80;99.30;19.30;99597.00;;;;338525;28;94248;-94
2021/06/24 00:33:14;;;;;;;1.50;0.70;;;19.80;99.30;19.20;99592.00;;;;339021;28;82457;-93
2021/06/24 00:33:26;;;;;;;1.88;0.80;;;19.70;99.40;19.10;99597.00;;;;338360;28;94708;-94
2021/06/24 00:33:38;;;;;;;1.90;0.80;;;19.70;99.30;19.20;99597.00;;;;339041;28;83440;-95
2021/06/24 00:33:50;;;;;;;3.00;0.95;;;19.70;99.30;19.40;99598.00;;;;338134;28;95127;-95
2021/06/24 00:34:01;;;;;;;2.67;0.80;;;19.70;99.50;19.50;99589.00;;;;337405;28;84558;-94
2021/06/24 00:34:13;;;;;;;2.40;0.65;;;19.70;99.50;19.60;99592.00;;;;335569;28;93343;-93
2021/06/24 00:34:25;;;;;;;1.20;0.50;;;19.70;99.50;19.50;99600.00;;;;337499;28;82895;-93
2021/06/24 00:34:37;;;;;;;1.23;0.60;;;19.70;99.50;19.60;99606.00;;;;336936;28;97845;-94
2021/06/24 00:34:49;;;;;;;1.85;0.90;;;19.70;99.50;19.40;99595.00;;;;340404;28;83407;-93
2021/06/24 00:35:01;;;;;;;2.20;0.93;;;19.70;99.50;19.40;99595.00;;;;335446;28;94046;-93
2021/06/24 00:35:14;;;;;;;3.13;0.77;;;19.70;99.50;19.40;99597.00;;;;337810;28;82519;-95
2021/06/24 00:35:26;;;;;;;3.00;0.80;;;19.70;99.60;19.40;99595.00;;;;339811;28;94138;-96
2021/06/24 00:35:38;;;;;;;3.40;0.70;;;19.60;99.50;19.40;99590.00;;;;340374;28;83264;-94
2021/06/24 00:35:50;;;;;;;1.98;0.50;;;19.60;99.50;19.30;99591.00;;;;336885;28;96810;-93
2021/06/24 00:36:02;;;;;;;2.38;0.63;;;19.60;99.60;19.30;99597.00;;;;337795;28;84154;-95
2021/06/24 00:36:14;;;;;;;1.98;0.70;;;19.60;99.70;19.40;99595.00;;;;337031;28;93314;-94
2021/06/24 00:36:26;;;;;;;1.58;0.65;;;19.60;99.70;19.30;99593.00;;;;338904;28;83417;-95
2021/06/24 00:36:37;;;;;;;2.38;0.75;;;19.60;99.70;19.30;99598.00;;;;339523;28;96286;-94
2021/06/24 00:36:49;;;;;;;3.28;1.00;;;19.60;99.80;19.20;99595.00;;;;337670;28;84386;-95
2021/06/24 00:37:01;;;;;;;3.50;1.00;;;19.60;99.90;19.40;99592.00;;;;338203;28;98257;-96
2021/06/24 00:37:13;;;;;;;1.92;0.88;;;19.60;99.90;19.50;99596.00;;;;341596;28;83992;-95
2021/06/24 00:37:25;;;;;;;1.63;0.70;;;19.60;99.90;19.60;99595.00;;;;335730;28;94810;-95
2021/06/24 00:37:38;;;;;;;1.83;0.70;;;19.60;99.90;19.70;99598.00;;;;337783;28;83451;-93
2021/06/24 00:37:49;;;;;;;1.60;0.60;;;19.60;99.90;19.60;99598.00;;;;339665;28;91742;-94
2021/06/24 00:38:04;;;;;;;2.70;0.70;;;19.60;99.80;19.50;99587.00;;;;337432;28;84375;-94
2021/06/24 00:38:16;;;;;;;2.40;0.70;;;19.70;99.80;19.50;99598.00;;;;339753;28;94360;-94
2021/06/24 00:38:27;;;;;;;1.58;0.50;;;19.70;99.80;19.40;99597.00;;;;339560;28;83927;-88
2021/06/24 00:38:39;;;;;;;1.50;0.60;;;19.70;99.70;19.50;99597.00;;;;336793;28;95287;-94
2021/06/24 00:38:51;;;;;;;1.30;0.50;;;19.60;99.70;19.70;99594.00;;;;339066;28;83848;-95
2021/06/24 00:39:03;;;;;;;1.10;0.52;;;19.70;99.80;19.80;99595.00;;;;339997;28;96419;-95
2021/06/24 00:39:15;;;;;;;1.60;0.70;;;19.70;99.90;19.80;99591.00;;;;339946;28;83133;-93
2021/06/24 00:39:27;;;;;;;1.80;0.60;;;19.70;99.80;19.90;99591.00;;;;337113;28;96067;-96
2021/06/24 00:39:39;;;;;;;1.85;0.55;;;19.70;99.80;19.70;99583.00;;;;339072;28;83297;-95
2021/06/24 00:39:51;;;;;;;1.67;0.50;;;19.70;99.70;19.60;99590.00;;;;338202;28;95723;-94
2021/06/24 00:40:06;;;;;;;1.50;0.50;;;19.70;99.60;19.50;99591.00;;;;339107;28;84521;-95
2021/06/24 00:40:18;;;;;;;1.30;0.50;;;19.70;99.60;19.50;99603.00;;;;337022;28;95016;-94
2021/06/24 00:40:33;;;;;;;1.10;0.57;;;19.70;99.70;19.50;99603.00;;;;339049;28;83304;-95
2021/06/24 00:40:45;;;;;;;1.20;0.52;;;19.70;99.80;19.50;99597.00;;;;339646;28;93509;-95
2021/06/24 00:40:57;;;;;;;1.40;0.55;;;19.70;99.70;19.50;99595.00;;;;337525;28;84475;-93
2021/06/24 00:41:09;;;;;;;1.88;0.68;;;19.70;99.80;19.50;99596.00;;;;337992;28;95289;-94
2021/06/24 00:41:21;;;;;;;2.00;0.70;;;19.70;99.80;19.50;99599.00;;;;340207;28;82735;-94
2021/06/24 00:41:32;;;;;;;2.72;0.70;;;19.70;99.80;19.50;99598.00;;;;338162;28;96349;-92
2021/06/24 00:41:44;;;;;;;4.10;0.63;;;19.70;99.80;19.50;99604.00;;;;338983;28;83375;-95
2021/06/24 00:41:56;;;;;;;3.40;0.70;;;19.70;99.90;19.40;99592.00;;;;338244;28;96937;-95
2021/06/24 00:42:08;;;;;;;2.63;0.65;;;19.70;99.80;19.40;99602.00;;;;340418;28;83408;-92
2021/06/24 00:42:20;;;;;;;1.42;0.50;;;19.70;99.90;19.40;99595.00;;;;339569;28;97884;-93
2021/06/24 00:42:32;;;;;;;1.95;0.50;;;19.70;99.80;19.30;99601.00;;;;339010;28;83435;-91
2021/06/24 00:42:44;;;;;;;1.88;0.70;;;19.70;99.90;19.30;99593.00;;;;338020;28;95654;-94
2021/06/24 00:42:56;;;;;;;1.80;0.70;;;19.70;99.60;19.30;99600.00;;;;340343;28;83618;-95
2021/06/24 00:43:11;;;;;;;1.95;0.50;;;19.70;99.50;19.50;99601.00;;;;334426;28;97585;-93
2021/06/24 00:43:25;;;;;;;1.73;0.60;;;19.60;99.60;19.70;99594.00;;;;337623;28;84343;-95
2021/06/24 00:43:37;;;;;;;1.67;0.60;;;19.70;99.90;19.80;99596.00;;;;338388;28;93904;-94
2021/06/24 00:43:49;;;;;;;1.60;0.50;;;19.70;99.60;19.80;99602.00;;;;335050;29;83397;-94
2021/06/24 00:44:01;;;;;;;2.03;0.50;;;19.70;99.60;19.80;99602.00;;;;337191;28;94680;-94
2021/06/24 00:44:13;;;;;;;2.83;0.60;;;19.70;99.60;19.80;99595.00;;;;337552;28;84324;-94
2021/06/24 00:44:24;;;;;;;2.63;0.70;;;19.70;99.60;19.80;99594.00;;;;338301;28;95830;-94
2021/06/24 00:44:36;;;;;;;1.83;0.65;;;19.80;99.60;19.70;99602.00;;;;341748;28;84117;-94
2021/06/24 00:44:48;;;;;;;1.60;0.52;;;19.80;99.60;19.70;99596.00;;;;341005;28;94468;-93
2021/06/24 00:45:00;;;;;;;1.92;0.50;;;19.80;99.60;19.70;99597.00;;;;340497;28;83155;-96
2021/06/24 00:45:13;;;;;;;1.77;0.50;;;19.80;99.60;19.60;99601.00;;;;338452;28;93348;-95
2021/06/24 00:45:24;;;;;;;1.58;0.65;;;19.80;99.60;19.60;99602.00;;;;339064;28;83393;-95
2021/06/24 00:45:37;;;;;;;1.50;0.60;;;19.80;99.70;19.60;99596.00;;;;338352;28;94414;-91
2021/06/24 00:45:49;;;;;;;1.17;0.57;;;19.80;99.70;19.60;99604.00;;;;338724;28;83993;-95
2021/06/24 00:46:01;;;;;;;1.10;0.40;;;19.80;99.80;19.70;99602.00;;;;338297;28;96774;-95
2021/06/24 00:46:13;;;;;;;0.98;0.50;;;19.80;99.80;19.60;99602.00;;;;340482;28;83354;-93
2021/06/24 00:46:24;;;;;;;1.38;0.47;;;19.80;99.80;19.70;99597.00;;;;338371;28;94087;-95
2021/06/24 00:46:36;;;;;;;2.88;0.50;;;19.80;99.70;19.70;99605.00;;;;340295;28;83745;-94
2021/06/24 00:46:52;;;;;;;3.08;0.47;;;19.80;99.70;19.70;99603.00;;;;340835;28;96135;-90
2021/06/24 00:47:04;;;;;;;3.30;0.70;;;19.80;99.80;19.60;99605.00;;;;340071;28;82561;-96
2021/06/24 00:47:16;;;;;;;2.88;0.77;;;19.80;99.70;19.50;99611.00;;;;335683;28;95779;-95
2021/06/24 00:47:28;;;;;;;1.00;0.55;;;19.80;99.80;19.50;99608.00;;;;338999;28;84918;-92
2021/06/24 00:47:40;;;;;;;1.23;0.45;;;19.80;99.80;19.50;99601.00;;;;338466;28;93275;-95
2021/06/24 00:47:52;;;;;;;1.23;0.50;;;19.80;99.80;19.60;99599.00;;;;340314;28;83820;-95
2021/06/24 00:48:06;;;;;;;1.65;0.60;;;19.80;99.80;19.60;99607.00;;;;339632;28;95044;-95
2021/06/24 00:48:18;;;;;;;1.48;0.52;;;19.80;99.80;19.60;99601.00;;;;338898;28;84262;-95
2021/06/24 00:48:29;;;;;;;1.10;0.40;;;19.70;99.80;19.60;99605.00;;;;338240;28;97392;-95
2021/06/24 00:48:41;;;;;;;1.10;0.50;;;19.70;99.80;19.70;99603.00;;;;338957;28;83996;-95
2021/06/24 00:48:59;;;;;;;1.13;0.52;;;19.80;99.80;19.70;99608.00;;;;339591;28;96658;-95
2021/06/24 00:49:11;;;;;;;1.80;0.57;;;19.80;99.80;19.70;99603.00;;;;336383;28;83211;-96
2021/06/24 00:49:23;;;;;;;1.85;0.52;;;19.80;99.80;19.80;99608.00;;;;339428;28;93896;-93
2021/06/24 00:49:34;;;;;;;1.60;0.47;;;19.80;99.90;19.80;99606.00;;;;337643;28;84209;-95
2021/06/24 00:49:46;;;;;;;1.40;0.50;;;19.80;99.90;19.80;99607.00;;;;338296;28;95918;-94
2021/06/24 00:49:58;;;;;;;1.90;0.57;;;19.80;99.90;19.80;99598.00;;;;338701;28;84218;-93
2021/06/24 00:50:11;;;;;;;2.13;0.52;;;19.80;99.90;19.80;99603.00;;;;337694;28;97086;-95
2021/06/24 00:50:23;;;;;;;1.65;0.57;;;19.80;99.90;19.80;99604.00;;;;339176;28;82398;-94
2021/06/24 00:50:37;;;;;;;1.20;0.60;;;19.80;99.80;19.80;99602.00;;;;339117;28;97818;-95
2021/06/24 00:50:49;;;;;;;1.48;0.50;;;19.80;99.80;19.70;99601.00;;;;341556;28;85829;-95
2021/06/24 00:51:01;;;;;;;1.83;0.60;;;19.90;99.80;19.70;99598.00;;;;337095;28;96506;-93
2021/06/24 00:51:13;;;;;;;1.83;0.52;;;19.80;99.80;19.70;99599.00;;;;337732;28;82487;-94
2021/06/24 00:51:25;;;;;;;1.40;0.40;;;19.80;99.80;19.60;99604.00;;;;338395;28;96822;-95
2021/06/24 00:51:37;;;;;;;1.48;0.45;;;19.80;99.80;19.60;99605.00;;;;340166;28;82392;-95
2021/06/24 00:51:49;;;;;;;1.65;0.55;;;19.80;99.90;19.70;99608.00;;;;336927;28;96758;-95
2021/06/24 00:52:01;;;;;;;1.85;0.57;;;19.80;99.80;19.70;99603.00;;;;339043;28;83307;-95
2021/06/24 00:52:13;;;;;;;1.27;0.50;;;19.80;99.80;19.80;99605.00;;;;335761;28;96410;-93
2021/06/24 00:52:24;;;;;;;1.77;0.55;;;19.80;99.80;19.80;99602.00;;;;338888;28;83403;-95
2021/06/24 00:52:37;;;;;;;1.85;0.65;;;19.80;99.70;19.70;99602.00;;;;336947;28;94344;-94
2021/06/24 00:52:48;;;;;;;1.20;0.55;;;19.80;99.70;19.70;99606.00;;;;339016;28;82463;-94
2021/06/24 00:53:00;;;;;;;1.15;0.50;;;19.80;99.70;19.70;99604.00;;;;335262;28;95941;-93
2021/06/24 00:53:12;;;;;;;1.70;0.57;;;19.80;99.70;19.70;99607.00;;;;341341;28;82457;-94
2021/06/24 00:53:24;;;;;;;1.65;0.50;;;19.80;99.70;19.80;99598.00;;;;337089;28;92621;-95
2021/06/24 00:53:36;;;;;;;0.95;0.45;;;19.80;99.90;19.80;99609.00;;;;341717;28;82492;-95
2021/06/24 00:53:48;;;;;;;1.65;0.60;;;19.80;99.80;19.80;99606.00;;;;337145;28;93043;-96
2021/06/24 00:54:01;;;;;;;2.00;0.70;;;19.80;99.80;19.80;99602.00;;;;340416;28;82462;-94
2021/06/24 00:54:13;;;;;;;1.77;0.50;;;19.90;99.80;19.80;99610.00;;;;339681;28;97396;-94
2021/06/24 00:54:25;;;;;;;1.38;0.50;;;19.90;99.80;19.80;99604.00;;;;336441;28;83642;-94
2021/06/24 00:54:37;;;;;;;1.60;0.60;;;19.90;99.80;19.80;99603.00;;;;337010;28;94376;-94
2021/06/24 00:54:49;;;;;;;1.35;0.57;;;19.90;99.80;19.80;99594.00;;;;336493;28;82582;-95